Weather History for Volk, WI

Change the Weather History Date:

Wednesday, November 21, 2012

  Actual Average Record
Temperature  
Mean Temperature 42 °F -  
Max Temperature 61 °F 37 °F 61 °F (2012)
Min Temperature 24 °F 24 °F 5 °F (2008)
Degree Days  
Heating Degree Days 22    
Moisture  
Dew Point 30 °F    
Average Humidity 92    
Maximum Humidity 100    
Minimum Humidity 49    
Precipitation  
Precipitation 0.00 in - - ()
Sea Level Pressure  
Sea Level Pressure 30.12 in    
Wind  
Wind Speed 3 mph (SE)    
Max Wind Speed 13 mph    
Max Gust Speed 18 mph    
Visibility 3 miles    
Events Fog    
Averages and records for this station are not official NWS values.
T = Trace of Precipitation, MM = Missing Value Source: NWS Daily Summary

Daily Weather History Graph

Daily Weather History Graph

Search for Another Location

Airport:

Trip Planner

Search our weather history database for the weather conditions in past years. The results will help you decide how hot, cold, wet, or windy it might be!

Date:

Astronomy

Nov. 21, 2012 Rise Set
Actual Time 7:04 AM CST 4:29 PM CST
Civil Twilight 6:32 AM CST 5:01 PM CST
Nautical Twilight 5:57 AM CST 5:36 PM CST
Astronomical Twilight 5:22 AM CST 6:10 PM CST
Moon 12:57 PM CST (11/21) 12:10 AM CST (11/21)
Length of Visible Light 10h 28m
Length of Day
9h 25m
First Quarter, 62% of the Moon is Illuminated
Nov 21
First Quarter
Nov 28
Full
Dec 6
Last Quarter
Dec 13
New
Dec 19
First Quarter

Hourly Weather History & Observations

Time (CST) Temp. Windchill Dew Point Humidity Pressure Visibility Wind Dir Wind Speed Gust Speed Precip Events Conditions
12:00 AM 26.6 °F - 26.6 °F 100% 30.16 in 0.8 mi Calm Calm - N/A   Clear
12:01 AM 26.6 °F - 26.6 °F 100% 30.16 in 1.0 mi Calm Calm - N/A   Clear
12:02 AM 26.6 °F - 26.6 °F 100% 30.16 in 1.2 mi Calm Calm - N/A   Clear
12:04 AM 26.6 °F - 24.8 °F 93% 30.16 in 1.5 mi Calm Calm - N/A   Clear
12:05 AM 26.6 °F - 24.8 °F 93% 30.16 in 1.2 mi Calm Calm - N/A   Clear
12:06 AM 26.6 °F - 24.8 °F 93% 30.16 in 1.0 mi Calm Calm - N/A   Clear
12:07 AM 26.6 °F - 24.8 °F 93% 30.16 in 0.8 mi Calm Calm - N/A   Clear
12:08 AM 26.6 °F - 24.8 °F 93% 30.16 in 0.5 mi Calm Calm - N/A Fog Light Freezing Fog
12:13 AM 24.8 °F - 24.8 °F 100% 30.16 in 0.2 mi Calm Calm - N/A Fog Light Freezing Fog
12:16 AM 24.8 °F - 24.8 °F 100% 30.16 in 0.5 mi Calm Calm - N/A Fog Light Freezing Fog
12:20 AM 26.6 °F - 24.8 °F 93% 30.16 in 0.8 mi Calm Calm - N/A   Clear
12:22 AM 26.6 °F - 24.8 °F 93% 30.16 in 1.0 mi Calm Calm - N/A   Clear
12:23 AM 26.6 °F - 24.8 °F 93% 30.16 in 1.2 mi Calm Calm - N/A   Clear
12:24 AM 26.6 °F - 24.8 °F 93% 30.16 in 1.5 mi Calm Calm - N/A   Clear
12:25 AM 24.8 °F - 24.8 °F 100% 30.16 in 1.8 mi Calm Calm - N/A   Clear
12:26 AM 24.8 °F - 24.8 °F 100% 30.16 in 2.0 mi Calm Calm - N/A   Clear
12:28 AM 24.8 °F 20.5 °F 24.8 °F 100% 30.16 in 1.8 mi ESE 3.5 mph - N/A   Clear
12:29 AM 24.8 °F 20.5 °F 24.8 °F 100% 30.16 in 1.0 mi SE 3.5 mph - N/A   Clear
12:30 AM 24.8 °F 19.1 °F 24.8 °F 100% 30.16 in 0.8 mi SE 4.6 mph - N/A   Clear
12:31 AM 24.8 °F 19.1 °F 24.8 °F 100% 30.16 in 0.5 mi SE 4.6 mph - N/A Fog Light Freezing Fog
12:37 AM 26.6 °F 20.0 °F 24.8 °F 93% 30.16 in 0.2 mi SE 5.8 mph - N/A Fog Light Freezing Fog
12:38 AM 26.6 °F 20.0 °F 26.6 °F 100% 30.16 in 0.5 mi SSE 5.8 mph - N/A Fog Light Freezing Fog
12:42 AM 28.4 °F 22.2 °F 28.4 °F 100% 30.15 in 0.8 mi SSE 5.8 mph - N/A   Clear
12:44 AM 28.4 °F 22.2 °F 28.4 °F 100% 30.15 in 1.0 mi SSE 5.8 mph - N/A   Clear
12:50 AM 30.2 °F 24.3 °F 30.2 °F 100% 30.14 in 0.8 mi SSE 5.8 mph - N/A   Clear
12:55 AM 31.3 °F 26.6 °F 30.9 °F 99% 30.14 in 0.8 mi SSE 4.6 mph - N/A   Clear
12:57 AM 32.0 °F 27.5 °F 30.2 °F 93% 30.14 in 1.0 mi SSE 4.6 mph - N/A   Clear
12:59 AM 32.0 °F 27.5 °F 30.2 °F 93% 30.14 in 1.2 mi SSE 4.6 mph - N/A   Clear
1:01 AM 32.0 °F 26.4 °F 30.2 °F 93% 30.14 in 1.5 mi SSE 5.8 mph - N/A   Clear
1:02 AM 32.0 °F 26.4 °F 30.2 °F 93% 30.14 in 1.8 mi SSE 5.8 mph - N/A   Clear
1:03 AM 32.0 °F 26.4 °F 30.2 °F 93% 30.14 in 2.0 mi SSE 5.8 mph - N/A   Clear
1:05 AM 32.0 °F 27.5 °F 30.2 °F 93% 30.14 in 2.5 mi SSE 4.6 mph - N/A   Clear
1:07 AM 32.0 °F 27.5 °F 30.2 °F 93% 30.14 in 3.0 mi SSE 4.6 mph - N/A   Clear
1:55 AM 31.8 °F 25.4 °F 31.5 °F 99% 30.14 in 6.0 mi SE 6.9 mph - N/A   Clear
2:55 AM 29.5 °F 25.9 °F 28.8 °F 97% 30.14 in 6.0 mi SE 3.5 mph - N/A   Clear
3:11 AM 24.8 °F 17.9 °F 24.8 °F 100% 30.14 in 2.5 mi ESE 5.8 mph - N/A   Clear
3:12 AM 24.8 °F 17.9 °F 24.8 °F 100% 30.14 in 1.8 mi ESE 5.8 mph - N/A   Clear
3:13 AM 24.8 °F 17.9 °F 24.8 °F 100% 30.14 in 1.2 mi ESE 5.8 mph - N/A   Clear
3:15 AM 24.8 °F 17.9 °F 24.8 °F 100% 30.14 in 1.0 mi SE 5.8 mph - N/A   Clear
3:22 AM 24.8 °F 17.9 °F 23.0 °F 93% 30.14 in 1.2 mi SE 5.8 mph - N/A   Clear
3:23 AM 24.8 °F 17.9 °F 23.0 °F 93% 30.14 in 1.5 mi SE 5.8 mph - N/A   Clear
3:24 AM 24.8 °F 17.9 °F 23.0 °F 93% 30.15 in 1.8 mi SE 5.8 mph - N/A   Clear
3:26 AM 24.8 °F 17.9 °F 23.0 °F 93% 30.15 in 2.0 mi SE 5.8 mph - N/A   Clear
3:29 AM 24.8 °F 19.1 °F 23.0 °F 93% 30.15 in 2.5 mi SE 4.6 mph - N/A   Clear
3:30 AM 24.8 °F 19.1 °F 24.8 °F 100% 30.15 in 3.0 mi SE 4.6 mph - N/A   Clear
3:55 AM 30.6 °F 27.1 °F 30.0 °F 98% 30.15 in 4.0 mi SE 3.5 mph - N/A   Clear
3:59 AM 28.4 °F 24.6 °F 28.4 °F 100% 30.15 in 2.5 mi SE 3.5 mph - N/A   Clear
4:00 AM 28.4 °F 24.6 °F 28.4 °F 100% 30.15 in 1.8 mi SE 3.5 mph - N/A   Clear
4:01 AM 28.4 °F 24.6 °F 26.6 °F 93% 30.15 in 1.5 mi SE 3.5 mph - N/A   Clear
4:02 AM 28.4 °F 23.3 °F 26.6 °F 93% 30.15 in 1.2 mi SE 4.6 mph - N/A   Clear
4:03 AM 28.4 °F 23.3 °F 26.6 °F 93% 30.15 in 1.0 mi SE 4.6 mph - N/A   Clear
4:04 AM 26.6 °F 21.2 °F 26.6 °F 100% 30.15 in 0.8 mi SE 4.6 mph - N/A   Clear
4:07 AM 26.6 °F 20.0 °F 26.6 °F 100% 30.15 in 0.5 mi ESE 5.8 mph - N/A Fog Light Freezing Fog
4:08 AM 26.6 °F 20.0 °F 26.6 °F 100% 30.15 in 0.8 mi ESE 5.8 mph - N/A   Clear
4:12 AM 28.4 °F 22.2 °F 28.4 °F 100% 30.15 in 1.0 mi SE 5.8 mph - N/A   Mist
4:13 AM 28.4 °F 22.2 °F 28.4 °F 100% 30.15 in 1.2 mi SE 5.8 mph - N/A   Partly Cloudy
4:14 AM 30.2 °F 24.3 °F 28.4 °F 93% 30.15 in 1.5 mi SE 5.8 mph - N/A   Partly Cloudy
4:15 AM 30.2 °F 25.4 °F 30.2 °F 100% 30.15 in 2.0 mi SE 4.6 mph - N/A   Partly Cloudy
4:20 AM 30.2 °F 25.4 °F 30.2 °F 100% 30.15 in 1.8 mi ESE 4.6 mph - N/A   Scattered Clouds
4:21 AM 30.2 °F 25.4 °F 30.2 °F 100% 30.16 in 1.8 mi ESE 4.6 mph - N/A   Mostly Cloudy
4:22 AM 30.2 °F 25.4 °F 30.2 °F 100% 30.16 in 1.5 mi ESE 4.6 mph - N/A   Mostly Cloudy
4:23 AM 30.2 °F 25.4 °F 30.2 °F 100% 30.16 in 1.2 mi ESE 4.6 mph - N/A   Mostly Cloudy
4:25 AM 30.2 °F 25.4 °F 30.2 °F 100% 30.16 in 1.0 mi SE 4.6 mph - N/A   Mist
4:26 AM 30.2 °F 26.7 °F 30.2 °F 100% 30.16 in 0.8 mi SE 3.5 mph - N/A   Mist
4:29 AM 30.2 °F 26.7 °F 30.2 °F 100% 30.16 in 0.5 mi SE 3.5 mph - N/A Fog Light Freezing Fog
4:34 AM 30.2 °F 25.4 °F 30.2 °F 100% 30.16 in 0.2 mi ESE 4.6 mph - N/A Fog Light Freezing Fog
4:41 AM 30.2 °F - 30.2 °F 100% 30.16 in 0.2 mi Calm Calm - N/A Fog Light Freezing Drizzle
4:55 AM 31.3 °F 27.9 °F 30.7 °F 98% 30.16 in 0.2 mi ESE 3.5 mph - 0.00 in Fog Light Freezing Drizzle
4:57 AM 32.0 °F 28.7 °F 30.2 °F 93% 30.16 in 0.2 mi East 3.5 mph - N/A Fog Light Freezing Fog
5:55 AM 31.8 °F 26.2 °F 31.5 °F 99% 30.14 in 0.2 mi East 5.8 mph - 0.00 in Fog Light Freezing Drizzle
6:03 AM 32.0 °F 28.7 °F 32.0 °F 100% 30.14 in 0.5 mi East 3.5 mph - N/A Fog Light Freezing Drizzle
6:17 AM 32.0 °F 28.7 °F 32.0 °F 100% 30.10 in 0.5 mi East 3.5 mph - N/A Fog Fog
6:55 AM 35.6 °F 32.8 °F 35.6 °F 100% 30.13 in 0.5 mi SSE 3.5 mph - N/A Fog Fog
7:18 AM 37.4 °F - 35.6 °F 93% 30.11 in 1.2 mi Calm Calm - N/A   Overcast
7:33 AM 37.4 °F - 37.4 °F 100% 30.11 in 2.5 mi Calm Calm - N/A   Mostly Cloudy
7:55 AM 39.2 °F 35.9 °F 37.4 °F 93% 30.12 in 5.0 mi SSE 4.6 mph - N/A   Mostly Cloudy
8:55 AM 41.0 °F 38.0 °F 41.0 °F 100% 30.12 in 7.0 mi SSE 4.6 mph - N/A   Scattered Clouds
9:55 AM 46.4 °F 42.9 °F 46.4 °F 100% 30.10 in 10.0 mi Variable 6.9 mph - N/A   Clear
10:55 AM 54.5 °F - 41.9 °F 62% 30.08 in 10.0 mi Variable 4.6 mph - N/A   Clear
11:55 AM 57.2 °F - 41.0 °F 55% 30.04 in 10.0 mi South 9.2 mph - N/A   Scattered Clouds
12:55 PM 59.0 °F - 42.8 °F 55% 30.01 in 10.0 mi South 6.9 mph 16.1 mph N/A   Mostly Cloudy
1:55 PM 61.3 °F - 42.1 °F 49% 29.98 in 10.0 mi Variable 6.9 mph - N/A   Clear
2:55 PM 61.3 °F - 42.3 °F 50% 29.97 in 10.0 mi SSW 8.1 mph - N/A   Clear
3:55 PM 59.5 °F - 42.8 °F 54% 29.97 in 10.0 mi South 5.8 mph - N/A   Clear
4:55 PM 56.7 °F - 42.8 °F 60% 29.97 in 10.0 mi South 4.6 mph - N/A   Clear
5:55 PM 54.1 °F - 43.0 °F 66% 29.96 in 10.0 mi South 8.1 mph - N/A   Clear
6:55 PM 52.5 °F - 43.2 °F 70% 29.96 in 10.0 mi SSE 8.1 mph - N/A   Clear
7:55 PM 52.5 °F - 43.9 °F 72% 29.95 in 10.0 mi South 12.7 mph 18.4 mph N/A   Clear
8:55 PM 53.1 °F - 43.3 °F 70% 29.94 in 10.0 mi South 8.1 mph - N/A   Clear
9:55 PM 52.5 °F - 42.8 °F 70% 29.94 in 10.0 mi South 9.2 mph - N/A   Clear
10:55 PM 52.5 °F - 42.4 °F 69% 29.93 in 10.0 mi Variable 3.5 mph - N/A   Clear
11:55 PM 51.4 °F - 42.1 °F 70% 29.91 in 10.0 mi South 8.1 mph - N/A   Clear